sensor_id;sensor_type;location;lat;lon;timestamp;P1;durP1;ratioP1;P2;durP2;ratioP2
14396;SDS011;50653;47.810;13.022;2023-01-28T00:00:18;44.10;;;25.83;;
14396;SDS011;50653;47.810;13.022;2023-01-28T00:02:45;29.00;;;16.73;;
14396;SDS011;50653;47.810;13.022;2023-01-28T00:05:13;26.70;;;17.80;;
14396;SDS011;50653;47.810;13.022;2023-01-28T00:07:39;32.60;;;18.47;;
14396;SDS011;50653;47.810;13.022;2023-01-28T00:10:05;29.30;;;16.80;;
14396;SDS011;50653;47.810;13.022;2023-01-28T00:12:31;29.30;;;16.03;;
14396;SDS011;50653;47.810;13.022;2023-01-28T00:14:57;28.67;;;19.13;;
14396;SDS011;50653;47.810;13.022;2023-01-28T00:17:22;28.73;;;17.50;;
14396;SDS011;50653;47.810;13.022;2023-01-28T00:19:48;30.57;;;18.53;;
14396;SDS011;50653;47.810;13.022;2023-01-28T00:22:14;30.83;;;17.80;;
14396;SDS011;50653;47.810;13.022;2023-01-28T00:24:40;25.47;;;17.70;;
14396;SDS011;50653;47.810;13.022;2023-01-28T00:27:05;37.53;;;19.90;;
14396;SDS011;50653;47.810;13.022;2023-01-28T00:29:31;25.77;;;17.37;;
14396;SDS011;50653;47.810;13.022;2023-01-28T00:31:57;30.93;;;17.73;;
14396;SDS011;50653;47.810;13.022;2023-01-28T00:34:23;28.47;;;16.43;;
14396;SDS011;50653;47.810;13.022;2023-01-28T00:36:48;37.83;;;18.60;;
14396;SDS011;50653;47.810;13.022;2023-01-28T00:39:21;35.20;;;19.07;;
14396;SDS011;50653;47.810;13.022;2023-01-28T00:41:48;30.93;;;19.27;;
14396;SDS011;50653;47.810;13.022;2023-01-28T00:44:15;41.33;;;20.30;;
14396;SDS011;50653;47.810;13.022;2023-01-28T00:46:40;30.67;;;18.37;;
14396;SDS011;50653;47.810;13.022;2023-01-28T00:49:06;37.67;;;19.80;;
14396;SDS011;50653;47.810;13.022;2023-01-28T00:51:32;36.80;;;20.50;;
14396;SDS011;50653;47.810;13.022;2023-01-28T00:53:58;32.90;;;19.77;;
14396;SDS011;50653;47.810;13.022;2023-01-28T00:56:25;28.57;;;19.43;;
14396;SDS011;50653;47.810;13.022;2023-01-28T00:58:51;42.20;;;20.90;;
14396;SDS011;50653;47.810;13.022;2023-01-28T01:01:22;38.13;;;20.20;;
14396;SDS011;50653;47.810;13.022;2023-01-28T01:03:49;30.73;;;19.60;;
14396;SDS011;50653;47.810;13.022;2023-01-28T01:06:29;32.00;;;20.07;;
14396;SDS011;50653;47.810;13.022;2023-01-28T01:09:00;36.23;;;20.33;;
14396;SDS011;50653;47.810;13.022;2023-01-28T01:11:27;34.03;;;20.43;;
14396;SDS011;50653;47.810;13.022;2023-01-28T01:13:53;31.60;;;19.47;;
14396;SDS011;50653;47.810;13.022;2023-01-28T01:16:23;38.50;;;21.17;;
14396;SDS011;50653;47.810;13.022;2023-01-28T01:18:51;29.60;;;19.13;;
14396;SDS011;50653;47.810;13.022;2023-01-28T01:21:19;37.33;;;20.90;;
14396;SDS011;50653;47.810;13.022;2023-01-28T01:23:51;40.10;;;20.23;;
14396;SDS011;50653;47.810;13.022;2023-01-28T01:26:17;33.73;;;21.33;;
14396;SDS011;50653;47.810;13.022;2023-01-28T01:28:43;36.37;;;21.70;;
14396;SDS011;50653;47.810;13.022;2023-01-28T01:31:13;34.13;;;20.07;;
14396;SDS011;50653;47.810;13.022;2023-01-28T01:33:42;34.40;;;19.97;;
14396;SDS011;50653;47.810;13.022;2023-01-28T01:36:09;40.40;;;24.30;;
14396;SDS011;50653;47.810;13.022;2023-01-28T01:38:36;34.63;;;22.17;;
14396;SDS011;50653;47.810;13.022;2023-01-28T01:41:02;31.63;;;20.20;;
14396;SDS011;50653;47.810;13.022;2023-01-28T01:46:18;36.57;;;20.73;;
14396;SDS011;50653;47.810;13.022;2023-01-28T01:48:50;36.67;;;20.83;;
14396;SDS011;50653;47.810;13.022;2023-01-28T01:51:18;33.73;;;20.33;;
14396;SDS011;50653;47.810;13.022;2023-01-28T01:53:50;33.73;;;21.07;;
14396;SDS011;50653;47.810;13.022;2023-01-28T01:56:19;37.20;;;23.57;;
14396;SDS011;50653;47.810;13.022;2023-01-28T01:58:48;38.17;;;21.30;;
14396;SDS011;50653;47.810;13.022;2023-01-28T02:01:15;40.57;;;23.37;;
14396;SDS011;50653;47.810;13.022;2023-01-28T02:03:46;39.80;;;24.77;;
14396;SDS011;50653;47.810;13.022;2023-01-28T02:06:22;38.00;;;21.30;;
14396;SDS011;50653;47.810;13.022;2023-01-28T02:08:48;39.37;;;23.50;;
14396;SDS011;50653;47.810;13.022;2023-01-28T02:11:14;35.17;;;20.83;;
14396;SDS011;50653;47.810;13.022;2023-01-28T02:13:43;35.90;;;22.00;;
14396;SDS011;50653;47.810;13.022;2023-01-28T02:16:12;39.20;;;23.13;;
14396;SDS011;50653;47.810;13.022;2023-01-28T02:18:38;42.30;;;24.90;;
14396;SDS011;50653;47.810;13.022;2023-01-28T02:23:39;42.70;;;22.10;;
14396;SDS011;50653;47.810;13.022;2023-01-28T02:37:43;33.00;;;19.40;;
14396;SDS011;50653;47.810;13.022;2023-01-28T02:40:21;31.23;;;19.03;;
14396;SDS011;50653;47.810;13.022;2023-01-28T02:42:55;37.07;;;21.97;;
14396;SDS011;50653;47.810;13.022;2023-01-28T02:45:27;36.43;;;20.80;;
14396;SDS011;50653;47.810;13.022;2023-01-28T02:48:16;30.80;;;19.40;;
14396;SDS011;50653;47.810;13.022;2023-01-28T02:53:31;36.30;;;21.53;;
14396;SDS011;50653;47.810;13.022;2023-01-28T02:56:17;31.87;;;18.80;;
14396;SDS011;50653;47.810;13.022;2023-01-28T02:58:57;40.33;;;21.40;;
14396;SDS011;50653;47.810;13.022;2023-01-28T03:01:25;33.87;;;19.07;;
14396;SDS011;50653;47.810;13.022;2023-01-28T03:04:01;35.80;;;20.17;;
14396;SDS011;50653;47.810;13.022;2023-01-28T03:06:48;30.07;;;17.40;;
14396;SDS011;50653;47.810;13.022;2023-01-28T03:09:18;27.53;;;17.10;;
14396;SDS011;50653;47.810;13.022;2023-01-28T03:11:58;25.77;;;16.47;;
14396;SDS011;50653;47.810;13.022;2023-01-28T03:14:48;32.80;;;16.70;;
14396;SDS011;50653;47.810;13.022;2023-01-28T03:17:45;30.57;;;16.40;;
14396;SDS011;50653;47.810;13.022;2023-01-28T03:21:02;30.37;;;19.77;;
14396;SDS011;50653;47.810;13.022;2023-01-28T03:27:15;43.50;;;18.67;;
14396;SDS011;50653;47.810;13.022;2023-01-28T03:33:32;30.17;;;18.07;;
14396;SDS011;50653;47.810;13.022;2023-01-28T03:36:17;28.90;;;18.70;;
14396;SDS011;50653;47.810;13.022;2023-01-28T03:39:02;25.67;;;14.33;;
14396;SDS011;50653;47.810;13.022;2023-01-28T03:41:27;25.37;;;16.80;;
14396;SDS011;50653;47.810;13.022;2023-01-28T03:43:55;20.47;;;13.30;;
14396;SDS011;50653;47.810;13.022;2023-01-28T03:46:22;21.03;;;13.83;;
14396;SDS011;50653;47.810;13.022;2023-01-28T03:48:54;20.80;;;13.90;;
14396;SDS011;50653;47.810;13.022;2023-01-28T03:51:28;26.23;;;15.50;;
14396;SDS011;50653;47.810;13.022;2023-01-28T03:53:57;28.40;;;14.97;;
14396;SDS011;50653;47.810;13.022;2023-01-28T03:56:23;21.80;;;13.27;;
14396;SDS011;50653;47.810;13.022;2023-01-28T03:58:51;23.20;;;13.07;;
14396;SDS011;50653;47.810;13.022;2023-01-28T04:01:23;29.93;;;16.17;;
14396;SDS011;50653;47.810;13.022;2023-01-28T04:03:52;22.30;;;14.07;;
14396;SDS011;50653;47.810;13.022;2023-01-28T04:06:23;25.47;;;15.80;;
14396;SDS011;50653;47.810;13.022;2023-01-28T04:08:55;25.97;;;13.93;;
14396;SDS011;50653;47.810;13.022;2023-01-28T04:11:29;24.50;;;14.93;;
14396;SDS011;50653;47.810;13.022;2023-01-28T04:13:56;21.73;;;13.10;;
14396;SDS011;50653;47.810;13.022;2023-01-28T04:16:23;20.70;;;13.83;;
14396;SDS011;50653;47.810;13.022;2023-01-28T04:18:50;22.23;;;13.00;;
14396;SDS011;50653;47.810;13.022;2023-01-28T04:21:16;22.00;;;14.00;;
14396;SDS011;50653;47.810;13.022;2023-01-28T04:23:42;23.50;;;12.23;;
14396;SDS011;50653;47.810;13.022;2023-01-28T04:26:10;25.53;;;14.40;;
14396;SDS011;50653;47.810;13.022;2023-01-28T04:28:36;22.10;;;14.03;;
14396;SDS011;50653;47.810;13.022;2023-01-28T04:31:02;24.07;;;14.03;;
14396;SDS011;50653;47.810;13.022;2023-01-28T04:33:54;22.23;;;14.30;;
14396;SDS011;50653;47.810;13.022;2023-01-28T04:36:42;28.57;;;14.70;;
14396;SDS011;50653;47.810;13.022;2023-01-28T04:39:27;24.60;;;14.20;;
14396;SDS011;50653;47.810;13.022;2023-01-28T04:42:13;22.93;;;14.00;;
14396;SDS011;50653;47.810;13.022;2023-01-28T04:45:05;20.03;;;14.10;;
14396;SDS011;50653;47.810;13.022;2023-01-28T04:48:07;25.37;;;14.03;;
14396;SDS011;50653;47.810;13.022;2023-01-28T04:50:51;24.83;;;13.97;;
14396;SDS011;50653;47.810;13.022;2023-01-28T04:53:24;24.10;;;13.07;;
14396;SDS011;50653;47.810;13.022;2023-01-28T04:55:56;26.23;;;13.20;;
14396;SDS011;50653;47.810;13.022;2023-01-28T04:58:23;21.03;;;12.90;;
14396;SDS011;50653;47.810;13.022;2023-01-28T05:00:55;20.50;;;15.23;;
14396;SDS011;50653;47.810;13.022;2023-01-28T05:03:22;31.73;;;15.60;;
14396;SDS011;50653;47.810;13.022;2023-01-28T05:05:48;26.67;;;14.90;;
14396;SDS011;50653;47.810;13.022;2023-01-28T05:08:31;28.17;;;14.40;;
14396;SDS011;50653;47.810;13.022;2023-01-28T05:10:57;28.87;;;16.90;;
14396;SDS011;50653;47.810;13.022;2023-01-28T05:13:23;25.27;;;14.27;;
14396;SDS011;50653;47.810;13.022;2023-01-28T05:15:50;27.90;;;15.63;;
14396;SDS011;50653;47.810;13.022;2023-01-28T05:18:17;23.23;;;14.60;;
14396;SDS011;50653;47.810;13.022;2023-01-28T05:20:49;29.33;;;15.03;;
14396;SDS011;50653;47.810;13.022;2023-01-28T05:23:15;30.93;;;15.47;;
14396;SDS011;50653;47.810;13.022;2023-01-28T05:25:48;26.00;;;14.53;;
14396;SDS011;50653;47.810;13.022;2023-01-28T05:28:14;29.87;;;15.40;;
14396;SDS011;50653;47.810;13.022;2023-01-28T05:30:40;31.10;;;17.20;;
14396;SDS011;50653;47.810;13.022;2023-01-28T05:33:06;22.77;;;15.30;;
14396;SDS011;50653;47.810;13.022;2023-01-28T05:35:32;24.60;;;13.60;;
14396;SDS011;50653;47.810;13.022;2023-01-28T05:37:58;25.37;;;15.40;;
14396;SDS011;50653;47.810;13.022;2023-01-28T05:40:25;23.47;;;13.47;;
14396;SDS011;50653;47.810;13.022;2023-01-28T05:42:50;27.23;;;13.27;;
14396;SDS011;50653;47.810;13.022;2023-01-28T05:45:39;29.13;;;15.80;;
14396;SDS011;50653;47.810;13.022;2023-01-28T05:48:20;31.43;;;15.67;;
14396;SDS011;50653;47.810;13.022;2023-01-28T05:50:57;27.50;;;15.53;;
14396;SDS011;50653;47.810;13.022;2023-01-28T05:53:34;25.57;;;15.60;;
14396;SDS011;50653;47.810;13.022;2023-01-28T05:56:00;22.27;;;14.27;;
14396;SDS011;50653;47.810;13.022;2023-01-28T05:58:28;23.27;;;14.33;;
14396;SDS011;50653;47.810;13.022;2023-01-28T06:00:57;23.90;;;14.20;;
14396;SDS011;50653;47.810;13.022;2023-01-28T06:03:29;27.40;;;15.27;;
14396;SDS011;50653;47.810;13.022;2023-01-28T06:05:55;28.00;;;17.23;;
14396;SDS011;50653;47.810;13.022;2023-01-28T06:08:21;29.10;;;16.10;;
14396;SDS011;50653;47.810;13.022;2023-01-28T06:10:46;25.60;;;15.73;;
14396;SDS011;50653;47.810;13.022;2023-01-28T06:13:12;29.50;;;15.80;;
14396;SDS011;50653;47.810;13.022;2023-01-28T06:15:38;26.67;;;15.33;;
14396;SDS011;50653;47.810;13.022;2023-01-28T06:18:25;31.70;;;16.50;;
14396;SDS011;50653;47.810;13.022;2023-01-28T06:20:52;21.60;;;14.40;;
14396;SDS011;50653;47.810;13.022;2023-01-28T06:23:18;27.73;;;15.80;;
14396;SDS011;50653;47.810;13.022;2023-01-28T06:25:43;26.40;;;15.53;;
14396;SDS011;50653;47.810;13.022;2023-01-28T06:28:11;30.77;;;16.10;;
14396;SDS011;50653;47.810;13.022;2023-01-28T06:30:37;24.07;;;13.83;;
14396;SDS011;50653;47.810;13.022;2023-01-28T06:33:03;23.20;;;15.10;;
14396;SDS011;50653;47.810;13.022;2023-01-28T06:35:28;25.23;;;16.83;;
14396;SDS011;50653;47.810;13.022;2023-01-28T06:37:54;29.00;;;15.27;;
14396;SDS011;50653;47.810;13.022;2023-01-28T06:40:20;29.17;;;14.63;;
14396;SDS011;50653;47.810;13.022;2023-01-28T06:42:47;30.63;;;16.50;;
14396;SDS011;50653;47.810;13.022;2023-01-28T06:45:13;24.40;;;14.50;;
14396;SDS011;50653;47.810;13.022;2023-01-28T06:47:39;34.73;;;16.37;;
14396;SDS011;50653;47.810;13.022;2023-01-28T06:50:05;22.53;;;14.43;;
14396;SDS011;50653;47.810;13.022;2023-01-28T06:52:31;27.33;;;15.20;;
14396;SDS011;50653;47.810;13.022;2023-01-28T06:54:57;27.63;;;14.63;;
14396;SDS011;50653;47.810;13.022;2023-01-28T06:57:22;32.03;;;16.90;;
14396;SDS011;50653;47.810;13.022;2023-01-28T06:59:48;33.83;;;15.63;;
14396;SDS011;50653;47.810;13.022;2023-01-28T07:02:14;26.43;;;16.10;;
14396;SDS011;50653;47.810;13.022;2023-01-28T07:04:39;27.27;;;14.23;;
14396;SDS011;50653;47.810;13.022;2023-01-28T07:07:05;33.30;;;16.07;;
14396;SDS011;50653;47.810;13.022;2023-01-28T07:09:31;31.23;;;15.33;;
14396;SDS011;50653;47.810;13.022;2023-01-28T07:11:57;31.20;;;16.33;;
14396;SDS011;50653;47.810;13.022;2023-01-28T07:14:22;31.73;;;16.47;;
14396;SDS011;50653;47.810;13.022;2023-01-28T07:16:48;28.90;;;16.80;;
14396;SDS011;50653;47.810;13.022;2023-01-28T07:19:14;26.77;;;14.77;;
14396;SDS011;50653;47.810;13.022;2023-01-28T07:21:39;31.30;;;17.80;;
14396;SDS011;50653;47.810;13.022;2023-01-28T07:24:05;34.93;;;16.33;;
14396;SDS011;50653;47.810;13.022;2023-01-28T07:26:31;31.87;;;18.20;;
14396;SDS011;50653;47.810;13.022;2023-01-28T07:28:57;31.83;;;17.03;;
14396;SDS011;50653;47.810;13.022;2023-01-28T07:31:24;25.07;;;15.93;;
14396;SDS011;50653;47.810;13.022;2023-01-28T07:33:50;26.97;;;16.80;;
14396;SDS011;50653;47.810;13.022;2023-01-28T07:36:15;28.57;;;16.63;;
14396;SDS011;50653;47.810;13.022;2023-01-28T07:38:41;27.77;;;16.90;;
14396;SDS011;50653;47.810;13.022;2023-01-28T07:41:07;31.97;;;15.83;;
14396;SDS011;50653;47.810;13.022;2023-01-28T07:43:32;32.50;;;17.80;;
14396;SDS011;50653;47.810;13.022;2023-01-28T07:45:59;39.43;;;19.73;;
14396;SDS011;50653;47.810;13.022;2023-01-28T07:48:26;34.53;;;19.37;;
14396;SDS011;50653;47.810;13.022;2023-01-28T07:50:52;33.13;;;17.10;;
14396;SDS011;50653;47.810;13.022;2023-01-28T07:53:18;32.53;;;17.23;;
14396;SDS011;50653;47.810;13.022;2023-01-28T07:55:44;31.30;;;19.57;;
14396;SDS011;50653;47.810;13.022;2023-01-28T07:58:10;32.50;;;18.80;;
14396;SDS011;50653;47.810;13.022;2023-01-28T08:00:37;28.27;;;17.47;;
14396;SDS011;50653;47.810;13.022;2023-01-28T08:03:04;27.17;;;16.90;;
14396;SDS011;50653;47.810;13.022;2023-01-28T08:05:38;28.70;;;16.80;;
14396;SDS011;50653;47.810;13.022;2023-01-28T08:08:12;29.77;;;16.90;;
14396;SDS011;50653;47.810;13.022;2023-01-28T08:10:38;33.97;;;17.00;;
14396;SDS011;50653;47.810;13.022;2023-01-28T08:13:05;29.97;;;17.70;;
14396;SDS011;50653;47.810;13.022;2023-01-28T08:15:31;38.93;;;18.07;;
14396;SDS011;50653;47.810;13.022;2023-01-28T08:17:58;25.77;;;15.70;;
14396;SDS011;50653;47.810;13.022;2023-01-28T08:20:24;28.23;;;16.30;;
14396;SDS011;50653;47.810;13.022;2023-01-28T08:22:51;32.00;;;16.53;;
14396;SDS011;50653;47.810;13.022;2023-01-28T08:25:17;34.27;;;18.60;;
14396;SDS011;50653;47.810;13.022;2023-01-28T08:27:44;28.27;;;16.30;;
14396;SDS011;50653;47.810;13.022;2023-01-28T08:30:10;24.90;;;17.00;;
14396;SDS011;50653;47.810;13.022;2023-01-28T08:32:36;36.60;;;19.20;;
14396;SDS011;50653;47.810;13.022;2023-01-28T08:35:02;25.77;;;16.17;;
14396;SDS011;50653;47.810;13.022;2023-01-28T08:37:28;32.57;;;17.20;;
14396;SDS011;50653;47.810;13.022;2023-01-28T08:39:54;35.07;;;17.43;;
14396;SDS011;50653;47.810;13.022;2023-01-28T08:42:20;35.10;;;17.03;;
14396;SDS011;50653;47.810;13.022;2023-01-28T08:44:46;36.17;;;18.20;;
14396;SDS011;50653;47.810;13.022;2023-01-28T08:47:12;28.93;;;16.20;;
14396;SDS011;50653;47.810;13.022;2023-01-28T08:49:38;29.60;;;16.60;;
14396;SDS011;50653;47.810;13.022;2023-01-28T08:52:04;32.03;;;17.47;;
14396;SDS011;50653;47.810;13.022;2023-01-28T08:54:30;34.10;;;17.20;;
14396;SDS011;50653;47.810;13.022;2023-01-28T08:56:57;34.73;;;18.13;;
14396;SDS011;50653;47.810;13.022;2023-01-28T08:59:23;31.07;;;17.53;;
14396;SDS011;50653;47.810;13.022;2023-01-28T09:01:49;30.30;;;17.10;;
14396;SDS011;50653;47.810;13.022;2023-01-28T09:04:15;43.40;;;20.67;;
14396;SDS011;50653;47.810;13.022;2023-01-28T09:06:41;27.97;;;17.97;;
14396;SDS011;50653;47.810;13.022;2023-01-28T09:09:07;33.20;;;17.67;;
14396;SDS011;50653;47.810;13.022;2023-01-28T09:11:33;32.83;;;18.37;;
14396;SDS011;50653;47.810;13.022;2023-01-28T09:13:58;31.10;;;17.40;;
14396;SDS011;50653;47.810;13.022;2023-01-28T09:16:24;37.03;;;18.30;;
14396;SDS011;50653;47.810;13.022;2023-01-28T09:18:50;33.13;;;18.63;;
14396;SDS011;50653;47.810;13.022;2023-01-28T09:21:18;32.17;;;18.07;;
14396;SDS011;50653;47.810;13.022;2023-01-28T09:23:44;37.37;;;19.10;;
14396;SDS011;50653;47.810;13.022;2023-01-28T09:26:10;31.43;;;18.37;;
14396;SDS011;50653;47.810;13.022;2023-01-28T09:28:35;32.00;;;16.97;;
14396;SDS011;50653;47.810;13.022;2023-01-28T09:31:09;35.50;;;16.90;;
14396;SDS011;50653;47.810;13.022;2023-01-28T09:33:36;33.73;;;17.10;;
14396;SDS011;50653;47.810;13.022;2023-01-28T09:36:04;39.30;;;22.20;;
14396;SDS011;50653;47.810;13.022;2023-01-28T09:38:31;30.73;;;17.63;;
14396;SDS011;50653;47.810;13.022;2023-01-28T09:41:01;29.87;;;16.93;;
14396;SDS011;50653;47.810;13.022;2023-01-28T09:43:40;31.13;;;16.30;;
14396;SDS011;50653;47.810;13.022;2023-01-28T09:46:34;29.43;;;16.67;;
14396;SDS011;50653;47.810;13.022;2023-01-28T09:49:08;24.50;;;16.30;;
14396;SDS011;50653;47.810;13.022;2023-01-28T09:51:44;29.40;;;17.70;;
14396;SDS011;50653;47.810;13.022;2023-01-28T09:54:22;32.13;;;15.87;;
14396;SDS011;50653;47.810;13.022;2023-01-28T09:57:13;33.70;;;19.30;;
14396;SDS011;50653;47.810;13.022;2023-01-28T09:59:47;33.13;;;18.83;;
14396;SDS011;50653;47.810;13.022;2023-01-28T10:16:39;33.90;;;17.20;;
14396;SDS011;50653;47.810;13.022;2023-01-28T10:19:13;36.57;;;16.50;;
14396;SDS011;50653;47.810;13.022;2023-01-28T10:21:54;36.50;;;18.80;;
14396;SDS011;50653;47.810;13.022;2023-01-28T10:24:30;27.30;;;16.27;;
14396;SDS011;50653;47.810;13.022;2023-01-28T10:27:09;53.33;;;26.20;;
14396;SDS011;50653;47.810;13.022;2023-01-28T10:29:39;46.87;;;21.53;;
14396;SDS011;50653;47.810;13.022;2023-01-28T10:34:58;36.40;;;19.20;;
14396;SDS011;50653;47.810;13.022;2023-01-28T10:37:26;33.27;;;18.17;;
14396;SDS011;50653;47.810;13.022;2023-01-28T10:39:53;32.13;;;18.87;;
14396;SDS011;50653;47.810;13.022;2023-01-28T10:42:25;38.00;;;19.70;;
14396;SDS011;50653;47.810;13.022;2023-01-28T10:44:58;33.30;;;19.30;;
14396;SDS011;50653;47.810;13.022;2023-01-28T10:47:37;32.90;;;18.00;;
14396;SDS011;50653;47.810;13.022;2023-01-28T10:50:06;30.40;;;17.60;;
14396;SDS011;50653;47.810;13.022;2023-01-28T10:52:58;33.90;;;17.43;;
14396;SDS011;50653;47.810;13.022;2023-01-28T10:55:26;32.80;;;19.23;;
14396;SDS011;50653;47.810;13.022;2023-01-28T10:57:59;28.80;;;17.70;;
14396;SDS011;50653;47.810;13.022;2023-01-28T11:00:27;67.87;;;31.53;;
14396;SDS011;50653;47.810;13.022;2023-01-28T11:02:57;32.37;;;19.13;;
14396;SDS011;50653;47.810;13.022;2023-01-28T11:05:25;34.83;;;18.47;;
14396;SDS011;50653;47.810;13.022;2023-01-28T11:08:03;27.03;;;15.93;;
14396;SDS011;50653;47.810;13.022;2023-01-28T11:10:35;35.50;;;19.30;;
14396;SDS011;50653;47.810;13.022;2023-01-28T11:13:03;28.83;;;17.50;;
14396;SDS011;50653;47.810;13.022;2023-01-28T11:15:31;37.67;;;18.90;;
14396;SDS011;50653;47.810;13.022;2023-01-28T11:17:58;33.63;;;19.13;;
14396;SDS011;50653;47.810;13.022;2023-01-28T11:20:27;33.80;;;19.80;;
14396;SDS011;50653;47.810;13.022;2023-01-28T11:22:56;35.80;;;19.50;;
14396;SDS011;50653;47.810;13.022;2023-01-28T11:27:56;34.73;;;20.10;;
14396;SDS011;50653;47.810;13.022;2023-01-28T11:30:25;30.03;;;17.10;;
14396;SDS011;50653;47.810;13.022;2023-01-28T11:35:51;37.80;;;18.33;;
14396;SDS011;50653;47.810;13.022;2023-01-28T11:38:20;34.70;;;19.83;;
14396;SDS011;50653;47.810;13.022;2023-01-28T11:40:52;32.30;;;18.10;;
14396;SDS011;50653;47.810;13.022;2023-01-28T11:43:22;31.97;;;17.37;;
14396;SDS011;50653;47.810;13.022;2023-01-28T11:51:31;30.40;;;17.47;;
14396;SDS011;50653;47.810;13.022;2023-01-28T11:54:22;33.03;;;18.73;;
14396;SDS011;50653;47.810;13.022;2023-01-28T12:08:28;31.77;;;17.43;;
14396;SDS011;50653;47.810;13.022;2023-01-28T12:13:47;30.30;;;19.10;;
14396;SDS011;50653;47.810;13.022;2023-01-28T12:19:28;28.07;;;16.60;;
14396;SDS011;50653;47.810;13.022;2023-01-28T12:28:07;30.40;;;19.30;;
14396;SDS011;50653;47.810;13.022;2023-01-28T12:39:15;33.90;;;18.70;;
14396;SDS011;50653;47.810;13.022;2023-01-28T12:44:50;36.10;;;18.67;;
14396;SDS011;50653;47.810;13.022;2023-01-28T12:47:27;30.23;;;18.10;;
14396;SDS011;50653;47.810;13.022;2023-01-28T12:50:00;32.03;;;18.03;;
14396;SDS011;50653;47.810;13.022;2023-01-28T12:52:39;33.17;;;17.70;;
14396;SDS011;50653;47.810;13.022;2023-01-28T12:57:41;25.80;;;15.67;;
14396;SDS011;50653;47.810;13.022;2023-01-28T13:00:25;25.40;;;14.90;;
14396;SDS011;50653;47.810;13.022;2023-01-28T13:05:39;23.07;;;15.33;;
14396;SDS011;50653;47.810;13.022;2023-01-28T13:10:45;28.43;;;15.47;;
14396;SDS011;50653;47.810;13.022;2023-01-28T13:13:21;23.10;;;14.70;;
14396;SDS011;50653;47.810;13.022;2023-01-28T13:15:50;27.73;;;15.67;;
14396;SDS011;50653;47.810;13.022;2023-01-28T13:18:32;23.43;;;15.43;;
14396;SDS011;50653;47.810;13.022;2023-01-28T13:21:04;28.80;;;16.80;;
14396;SDS011;50653;47.810;13.022;2023-01-28T13:28:43;23.87;;;15.47;;
14396;SDS011;50653;47.810;13.022;2023-01-28T13:31:10;29.63;;;18.80;;
14396;SDS011;50653;47.810;13.022;2023-01-28T13:33:41;33.83;;;17.03;;
14396;SDS011;50653;47.810;13.022;2023-01-28T13:36:32;25.80;;;16.40;;
14396;SDS011;50653;47.810;13.022;2023-01-28T13:39:21;28.77;;;17.03;;
14396;SDS011;50653;47.810;13.022;2023-01-28T13:41:50;28.13;;;18.63;;
14396;SDS011;50653;47.810;13.022;2023-01-28T13:44:28;26.00;;;16.30;;
14396;SDS011;50653;47.810;13.022;2023-01-28T13:47:10;22.23;;;15.90;;
14396;SDS011;50653;47.810;13.022;2023-01-28T13:49:46;30.33;;;18.60;;
14396;SDS011;50653;47.810;13.022;2023-01-28T13:52:27;32.03;;;17.03;;
14396;SDS011;50653;47.810;13.022;2023-01-28T13:55:17;29.30;;;17.63;;
14396;SDS011;50653;47.810;13.022;2023-01-28T14:20:18;32.77;;;20.33;;
14396;SDS011;50653;47.810;13.022;2023-01-28T14:22:52;33.80;;;19.50;;
14396;SDS011;50653;47.810;13.022;2023-01-28T14:28:33;32.30;;;18.70;;
14396;SDS011;50653;47.810;13.022;2023-01-28T14:31:25;32.97;;;17.87;;
14396;SDS011;50653;47.810;13.022;2023-01-28T14:33:49;30.03;;;17.03;;
14396;SDS011;50653;47.810;13.022;2023-01-28T14:36:15;30.43;;;17.03;;
14396;SDS011;50653;47.810;13.022;2023-01-28T14:38:44;28.57;;;17.30;;
14396;SDS011;50653;47.810;13.022;2023-01-28T14:41:21;37.60;;;19.93;;
14396;SDS011;50653;47.810;13.022;2023-01-28T14:43:50;36.90;;;21.10;;
14396;SDS011;50653;47.810;13.022;2023-01-28T14:46:25;32.97;;;18.63;;
14396;SDS011;50653;47.810;13.022;2023-01-28T14:51:53;32.63;;;19.63;;
14396;SDS011;50653;47.810;13.022;2023-01-28T14:54:37;32.90;;;18.90;;
14396;SDS011;50653;47.810;13.022;2023-01-28T14:57:20;26.90;;;17.70;;
14396;SDS011;50653;47.810;13.022;2023-01-28T14:59:57;33.40;;;18.80;;
14396;SDS011;50653;47.810;13.022;2023-01-28T15:02:26;32.83;;;17.40;;
14396;SDS011;50653;47.810;13.022;2023-01-28T15:04:54;33.10;;;18.23;;
14396;SDS011;50653;47.810;13.022;2023-01-28T15:07:26;31.63;;;18.27;;
14396;SDS011;50653;47.810;13.022;2023-01-28T15:13:08;33.63;;;18.43;;
14396;SDS011;50653;47.810;13.022;2023-01-28T15:15:39;33.27;;;20.00;;
14396;SDS011;50653;47.810;13.022;2023-01-28T15:18:17;35.07;;;18.70;;
14396;SDS011;50653;47.810;13.022;2023-01-28T15:20:47;30.47;;;17.70;;
14396;SDS011;50653;47.810;13.022;2023-01-28T15:23:16;35.80;;;19.33;;
14396;SDS011;50653;47.810;13.022;2023-01-28T15:25:45;27.60;;;17.37;;
14396;SDS011;50653;47.810;13.022;2023-01-28T15:28:16;28.43;;;17.23;;
14396;SDS011;50653;47.810;13.022;2023-01-28T15:30:52;34.63;;;18.03;;
14396;SDS011;50653;47.810;13.022;2023-01-28T15:33:19;30.70;;;18.70;;
14396;SDS011;50653;47.810;13.022;2023-01-28T15:35:46;31.00;;;19.17;;
14396;SDS011;50653;47.810;13.022;2023-01-28T15:38:20;33.83;;;19.90;;
14396;SDS011;50653;47.810;13.022;2023-01-28T15:40:47;32.50;;;20.30;;
14396;SDS011;50653;47.810;13.022;2023-01-28T15:43:20;34.53;;;19.70;;
14396;SDS011;50653;47.810;13.022;2023-01-28T15:45:48;29.03;;;20.40;;
14396;SDS011;50653;47.810;13.022;2023-01-28T15:48:19;31.53;;;19.63;;
14396;SDS011;50653;47.810;13.022;2023-01-28T15:50:47;36.53;;;21.03;;
14396;SDS011;50653;47.810;13.022;2023-01-28T15:53:23;39.40;;;21.77;;
14396;SDS011;50653;47.810;13.022;2023-01-28T15:55:49;34.63;;;22.07;;
14396;SDS011;50653;47.810;13.022;2023-01-28T16:01:01;31.00;;;19.10;;
14396;SDS011;50653;47.810;13.022;2023-01-28T16:03:39;36.87;;;20.40;;
14396;SDS011;50653;47.810;13.022;2023-01-28T16:06:07;44.30;;;23.33;;
14396;SDS011;50653;47.810;13.022;2023-01-28T16:08:49;35.20;;;20.10;;
14396;SDS011;50653;47.810;13.022;2023-01-28T16:11:29;44.33;;;24.50;;
14396;SDS011;50653;47.810;13.022;2023-01-28T16:13:59;35.57;;;21.40;;
14396;SDS011;50653;47.810;13.022;2023-01-28T16:16:27;41.80;;;22.60;;
14396;SDS011;50653;47.810;13.022;2023-01-28T16:19:05;36.20;;;20.20;;
14396;SDS011;50653;47.810;13.022;2023-01-28T16:21:36;42.80;;;21.77;;
14396;SDS011;50653;47.810;13.022;2023-01-28T16:24:23;43.77;;;22.63;;
14396;SDS011;50653;47.810;13.022;2023-01-28T16:26:55;45.87;;;22.40;;
14396;SDS011;50653;47.810;13.022;2023-01-28T16:29:22;41.00;;;21.10;;
14396;SDS011;50653;47.810;13.022;2023-01-28T16:31:49;41.73;;;21.30;;
14396;SDS011;50653;47.810;13.022;2023-01-28T16:34:15;42.80;;;22.47;;
14396;SDS011;50653;47.810;13.022;2023-01-28T16:36:41;40.50;;;20.70;;
14396;SDS011;50653;47.810;13.022;2023-01-28T16:39:06;39.17;;;19.73;;
14396;SDS011;50653;47.810;13.022;2023-01-28T16:41:33;33.83;;;19.60;;
14396;SDS011;50653;47.810;13.022;2023-01-28T16:44:04;37.13;;;21.67;;
14396;SDS011;50653;47.810;13.022;2023-01-28T16:46:31;37.10;;;20.87;;